Time;durP1;ratioP1;P1;durP2;ratioP2;P2;SDS_P1;SDS_P2;PMS_P1;PMS_P2;Temp;Humidity;BMP_temperature;BMP_pressure;BME280_temperature;BME280_humidity;BME280_pressure;Samples;Min_cycle;Max_cycle;Signal;HPM_P1;HPM_P2
2022/07/12 00:04:54;;;;;;;;;;;;;;;22.82;45.81;96291.59;10496873;28;1971;-58
2022/07/12 00:09:55;;;;;;;;;;;;;;;22.81;45.77;96290.81;10504214;28;1744;-57
2022/07/12 00:14:56;;;;;;;;;;;;;;;22.83;45.66;96293.19;10500476;28;1740;-63
2022/07/12 00:19:56;;;;;;;;;;;;;;;22.82;45.94;96291.59;10497342;28;1867;-62
2022/07/12 00:24:57;;;;;;;;;;;;;;;22.82;45.90;96289.72;10502008;28;1972;-57
2022/07/12 00:29:57;;;;;;;;;;;;;;;22.81;45.82;96284.72;10496561;28;2250;-59
2022/07/12 00:34:58;;;;;;;;;;;;;;;22.79;45.47;96292.94;10485862;28;1919;-57
2022/07/12 00:39:58;;;;;;;;;;;;;;;22.80;45.85;96289.22;10499731;28;2016;-57
2022/07/12 00:44:58;;;;;;;;;;;;;;;22.79;45.95;96289.50;10501302;28;2243;-58
2022/07/12 00:49:59;;;;;;;;;;;;;;;22.79;45.46;96297.44;10509348;28;2196;-58
2022/07/12 00:54:59;;;;;;;;;;;;;;;22.79;45.69;96292.94;10508634;28;1831;-59
2022/07/12 00:59:59;;;;;;;;;;;;;;;22.79;45.71;96286.84;10502116;28;1963;-60
2022/07/12 01:05:00;;;;;;;;;;;;;;;22.78;45.76;96285.25;10504569;28;1981;-59
2022/07/12 01:10:00;;;;;;;;;;;;;;;22.78;45.83;96286.06;10509197;28;1862;-58
2022/07/12 01:15:16;;;;;;;;;;;;;;;22.79;45.66;96289.50;10504736;28;1975;-59
2022/07/12 01:20:20;;;;;;;;;;;;;;;22.78;45.95;96285.25;10503346;28;1881;-59
2022/07/12 01:25:21;;;;;;;;;;;;;;;22.78;45.82;96287.91;10505250;28;1993;-58
2022/07/12 01:30:24;;;;;;;;;;;;;;;22.77;45.75;96289.78;10506611;28;2052;-60
2022/07/12 01:35:45;;;;;;;;;;;;;;;22.78;45.59;96295.84;10504952;28;1888;-59
2022/07/12 01:40:48;;;;;;;;;;;;;;;22.77;45.67;96286.34;10504196;28;1957;-57
2022/07/12 01:45:49;;;;;;;;;;;;;;;22.77;45.63;96289.00;10506934;28;2007;-57
2022/07/12 01:50:50;;;;;;;;;;;;;;;22.77;45.63;96281.06;10507633;28;1939;-60
2022/07/12 01:55:51;;;;;;;;;;;;;;;22.76;45.55;96290.84;10502853;28;1960;-61
2022/07/12 02:00:52;;;;;;;;;;;;;;;22.76;45.57;96287.38;10506143;28;1992;-57
2022/07/12 02:05:52;;;;;;;;;;;;;;;22.77;45.17;96289.00;10503694;28;1932;-61
2022/07/12 02:10:53;;;;;;;;;;;;;;;22.76;45.23;96290.03;10503314;28;1885;-61
2022/07/12 02:15:53;;;;;;;;;;;;;;;22.77;45.51;96294.28;10504210;28;1866;-59
2022/07/12 02:20:53;;;;;;;;;;;;;;;22.76;45.50;96284.75;10504044;28;1925;-60
2022/07/12 02:25:54;;;;;;;;;;;;;;;22.76;45.35;96288.19;10503107;28;2032;-63
2022/07/12 02:30:55;;;;;;;;;;;;;;;22.75;45.34;96273.38;10505612;28;2008;-56
2022/07/12 02:35:55;;;;;;;;;;;;;;;22.74;45.38;96285.03;10502622;28;1956;-58
2022/07/12 02:40:56;;;;;;;;;;;;;;;22.75;45.43;96291.13;10499892;28;2001;-59
2022/07/12 02:46:06;;;;;;;;;;;;;;;22.74;45.45;96290.31;10507316;28;1913;-60
2022/07/12 02:51:06;;;;;;;;;;;;;;;22.74;45.54;96278.94;10501753;28;2048;-57
2022/07/12 02:56:07;;;;;;;;;;;;;;;22.74;45.34;96286.88;10502634;28;1937;-56
2022/07/12 03:01:07;;;;;;;;;;;;;;;22.73;45.20;96280.78;10505301;28;1960;-57
2022/07/12 03:06:07;;;;;;;;;;;;;;;22.73;45.15;96285.31;10481534;28;1917;-60
2022/07/12 03:11:07;;;;;;;;;;;;;;;22.73;45.34;96285.31;10499134;28;1914;-59
2022/07/12 03:16:08;;;;;;;;;;;;;;;22.73;45.26;96288.72;10502061;28;1976;-56
2022/07/12 03:21:09;;;;;;;;;;;;;;;22.71;45.26;96288.22;10502584;28;1992;-55
2022/07/12 03:26:09;;;;;;;;;;;;;;;22.71;45.15;96290.09;10506236;28;1976;-58
2022/07/12 03:31:10;;;;;;;;;;;;;;;22.71;45.27;96293.50;10499433;28;1446;-62
2022/07/12 03:36:10;;;;;;;;;;;;;;;22.72;44.95;96296.94;10505139;28;1857;-62
2022/07/12 03:41:11;;;;;;;;;;;;;;;22.70;44.88;96294.56;10502354;28;1933;-60
2022/07/12 03:46:12;;;;;;;;;;;;;;;22.71;45.10;96308.59;10501275;28;1909;-53
2022/07/12 03:51:12;;;;;;;;;;;;;;;22.70;45.24;96297.22;10504669;28;1869;-58
2022/07/12 03:57:13;;;;;;;;;;;;;;;22.71;45.17;96311.22;10498079;28;2000;-55
2022/07/12 04:01:32;;;;;;;;;;;;;;;22.70;45.13;96307.00;10494963;28;1978;-59
2022/07/12 04:06:33;;;;;;;;;;;;;;;22.71;45.25;96313.88;10499986;28;1911;-55
2022/07/12 04:11:33;;;;;;;;;;;;;;;22.70;45.22;96315.72;10499411;28;1536;-63
2022/07/12 04:16:33;;;;;;;;;;;;;;;22.71;45.13;96316.50;10502985;28;1925;-61
2022/07/12 04:21:34;;;;;;;;;;;;;;;22.71;45.07;96316.50;10506070;28;2035;-62
2022/07/12 04:26:35;;;;;;;;;;;;;;;22.71;45.09;96324.44;10509050;28;1981;-60
2022/07/12 04:31:35;;;;;;;;;;;;;;;22.72;45.10;96328.66;10508317;28;1959;-60
2022/07/12 04:36:36;;;;;;;;;;;;;;;22.71;45.00;96319.16;10503332;28;2019;-57
2022/07/12 04:41:36;;;;;;;;;;;;;;;22.71;45.09;96316.50;10508084;28;2649;-60
2022/07/12 04:46:36;;;;;;;;;;;;;;;22.71;44.79;96325.22;10508721;28;2042;-60
2022/07/12 04:51:37;;;;;;;;;;;;;;;22.71;45.02;96319.16;10511247;28;2000;-62
2022/07/12 04:56:37;;;;;;;;;;;;;;;22.72;45.17;96326.00;10501022;28;1854;-60
2022/07/12 05:01:37;;;;;;;;;;;;;;;22.72;45.22;96337.38;10502684;28;1803;-59
2022/07/12 05:06:38;;;;;;;;;;;;;;;22.73;44.92;96338.16;10500527;28;1945;-60
2022/07/12 05:11:39;;;;;;;;;;;;;;;22.75;45.13;96334.16;10504802;28;1944;-61
2022/07/12 05:16:39;;;;;;;;;;;;;;;22.77;44.97;96336.56;10507509;28;1878;-59
2022/07/12 05:21:41;;;;;;;;;;;;;;;22.75;45.20;96334.16;10501408;28;1980;-62
2022/07/12 05:26:42;;;;;;;;;;;;;;;22.75;44.96;96336.03;10500632;28;2000;-56
2022/07/12 05:31:42;;;;;;;;;;;;;;;22.77;45.32;96347.94;10497052;28;1873;-58
2022/07/12 05:36:43;;;;;;;;;;;;;;;22.78;45.50;96348.69;10495477;28;1886;-61
2022/07/12 05:41:44;;;;;;;;;;;;;;;22.75;45.48;96343.97;10496146;28;1918;-57
2022/07/12 05:46:45;;;;;;;;;;;;;;;22.70;45.44;96347.44;10503563;28;1996;-61
2022/07/12 05:57:04;;;;;;;;;;;;;;;22.75;45.22;96365.13;10486415;28;2010;-58
2022/07/12 06:02:04;;;;;;;;;;;;;;;22.75;45.42;96365.13;10502052;28;1965;-57
2022/07/12 06:07:05;;;;;;;;;;;;;;;22.76;45.27;96380.69;10508778;28;1968;-61
2022/07/12 06:12:05;;;;;;;;;;;;;;;22.77;45.42;96378.84;10495684;28;2162;-61
2022/07/12 06:17:08;;;;;;;;;;;;;;;22.79;45.11;96380.16;10501355;28;2028;-55
2022/07/12 06:22:08;;;;;;;;;;;;;;;22.80;45.00;96379.09;10500718;28;1977;-56
2022/07/12 06:27:08;;;;;;;;;;;;;;;22.81;45.26;96377.25;10499760;28;1900;-56
2022/07/12 06:32:08;;;;;;;;;;;;;;;22.81;45.31;96382.53;10498593;28;1896;-59
2022/07/12 06:37:14;;;;;;;;;;;;;;;22.81;45.38;96377.25;10506504;28;1972;-58
2022/07/12 06:42:15;;;;;;;;;;;;;;;22.83;45.34;96383.03;10496701;28;1901;-57
2022/07/12 06:47:15;;;;;;;;;;;;;;;22.81;45.00;96380.69;10493526;28;1948;-59
2022/07/12 06:52:15;;;;;;;;;;;;;;;22.81;45.22;96371.97;10499944;28;2054;-59
2022/07/12 06:57:16;;;;;;;;;;;;;;;22.82;45.13;96370.88;10495664;28;1973;-57
2022/07/12 07:02:16;;;;;;;;;;;;;;;22.82;45.18;96368.22;10499356;28;1945;-61
2022/07/12 07:07:17;;;;;;;;;;;;;;;22.82;44.92;96373.53;10498617;28;1790;-59
2022/07/12 07:12:17;;;;;;;;;;;;;;;22.81;45.29;96377.25;10501140;28;1977;-59
2022/07/12 07:17:19;;;;;;;;;;;;;;;22.82;45.12;96379.59;10498615;28;1931;-54
2022/07/12 07:22:20;;;;;;;;;;;;;;;22.82;45.17;96378.81;10496414;28;1985;-56
2022/07/12 07:27:20;;;;;;;;;;;;;;;22.82;45.08;96387.53;10499910;28;2009;-57
2022/07/12 07:32:20;;;;;;;;;;;;;;;22.83;45.13;96383.03;10500577;28;2035;-57
2022/07/12 07:37:23;;;;;;;;;;;;;;;22.81;45.21;96390.47;10499832;28;1922;-56
2022/07/12 07:42:23;;;;;;;;;;;;;;;22.82;45.21;96386.75;10495884;28;2871;-61
2022/07/12 07:47:23;;;;;;;;;;;;;;;22.82;45.21;96390.19;10501154;28;1933;-61
2022/07/12 07:52:24;;;;;;;;;;;;;;;22.81;45.28;96383.31;10498306;28;2262;-55
2022/07/12 07:57:25;;;;;;;;;;;;;;;22.81;45.36;96385.16;10507083;28;1948;-60
2022/07/12 08:02:25;;;;;;;;;;;;;;;22.82;45.08;96392.03;10505012;28;1981;-57
2022/07/12 08:07:25;;;;;;;;;;;;;;;22.81;45.17;96388.63;10510480;28;1997;-56
2022/07/12 08:12:26;;;;;;;;;;;;;;;22.81;45.19;96393.09;10508093;28;2217;-62
2022/07/12 08:17:26;;;;;;;;;;;;;;;22.81;45.31;96395.75;10509627;28;1916;-60
2022/07/12 08:22:27;;;;;;;;;;;;;;;22.82;45.01;96395.47;10509812;28;1917;-58
2022/07/12 08:27:28;;;;;;;;;;;;;;;22.81;45.14;96393.91;10504340;28;2184;-60
2022/07/12 08:32:28;;;;;;;;;;;;;;;22.83;45.35;96399.69;10490742;28;2160;-57
2022/07/12 08:37:28;;;;;;;;;;;;;;;22.82;45.45;96407.88;10506367;28;2156;-57
2022/07/12 08:42:28;;;;;;;;;;;;;;;22.82;45.41;96408.69;10500248;28;1910;-56
2022/07/12 08:47:29;;;;;;;;;;;;;;;22.82;45.50;96410.53;10499188;28;1839;-60
2022/07/12 08:52:29;;;;;;;;;;;;;;;22.79;45.71;96413.72;10503528;28;1958;-60
2022/07/12 08:57:32;;;;;;;;;;;;;;;22.76;45.61;96414.25;10496619;28;1946;-59
2022/07/12 09:02:43;;;;;;;;;;;;;;;22.76;45.75;96411.63;10500110;28;1918;-61
2022/07/12 09:07:43;;;;;;;;;;;;;;;22.75;45.68;96418.75;10503348;28;1823;-55
2022/07/12 09:12:44;;;;;;;;;;;;;;;22.76;45.70;96415.06;10496958;28;1904;-54
2022/07/12 09:17:46;;;;;;;;;;;;;;;22.76;45.59;96422.19;10504436;28;1835;-64
2022/07/12 09:22:51;;;;;;;;;;;;;;;22.75;45.89;96418.75;10498039;28;1972;-59
2022/07/12 09:27:53;;;;;;;;;;;;;;;22.76;45.69;96411.63;10498223;28;1748;-60
2022/07/12 09:38:20;;;;;;;;;;;;;;;22.75;45.95;96421.38;10503420;28;1906;-57
2022/07/12 09:43:20;;;;;;;;;;;;;;;22.75;45.95;96434.59;10499827;28;2046;-60
2022/07/12 09:48:21;;;;;;;;;;;;;;;22.75;45.98;96431.19;10499261;28;1902;-57
2022/07/12 09:53:22;;;;;;;;;;;;;;;22.76;46.03;96427.47;10498172;28;1837;-62
2022/07/12 09:58:49;;;;;;;;;;;;;;;22.76;46.04;96428.28;10502573;28;1796;-56
2022/07/12 10:03:52;;;;;;;;;;;;;;;22.76;46.03;96430.91;10496719;28;2101;-59
2022/07/12 10:08:54;;;;;;;;;;;;;;;22.74;45.86;96432.25;10499119;28;1848;-58
2022/07/12 10:13:54;;;;;;;;;;;;;;;22.74;45.72;96432.25;10492382;28;1852;-61
2022/07/12 10:19:14;;;;;;;;;;;;;;;22.77;45.77;96432.50;10496535;28;1760;-56
2022/07/12 10:24:33;;;;;;;;;;;;;;;22.76;45.86;96436.19;10500572;28;1918;-61
2022/07/12 10:29:33;;;;;;;;;;;;;;;22.76;45.91;96430.91;10494722;28;1812;-60
2022/07/12 10:34:35;;;;;;;;;;;;;;;22.80;46.24;96431.94;10500106;28;1848;-58
2022/07/12 10:39:37;;;;;;;;;;;;;;;22.81;46.38;96432.75;10503928;28;1963;-56
2022/07/12 10:44:38;;;;;;;;;;;;;;;22.81;46.51;96422.19;10492653;28;1909;-56
2022/07/12 10:49:42;;;;;;;;;;;;;;;22.82;46.01;96429.03;10500996;28;1848;-59
2022/07/12 10:55:06;;;;;;;;;;;;;;;22.81;46.44;96425.63;10499341;28;1812;-55
2022/07/12 11:00:08;;;;;;;;;;;;;;;22.82;46.40;96429.81;10493023;28;1874;-60
2022/07/12 11:05:09;;;;;;;;;;;;;;;22.82;46.45;96429.03;10493099;28;1977;-55
2022/07/12 11:10:11;;;;;;;;;;;;;;;22.83;46.40;96426.13;10497541;28;1820;-60
2022/07/12 11:15:13;;;;;;;;;;;;;;;22.83;46.13;96430.63;10495749;28;1927;-56
2022/07/12 11:20:13;;;;;;;;;;;;;;;22.84;46.33;96429.56;10492572;28;1816;-57
2022/07/12 11:25:14;;;;;;;;;;;;;;;22.85;46.22;96420.56;10503778;28;1962;-57
2022/07/12 11:30:16;;;;;;;;;;;;;;;22.84;46.36;96417.13;10494138;28;1831;-58
2022/07/12 11:35:17;;;;;;;;;;;;;;;22.84;46.26;96416.34;10497946;28;1814;-59
2022/07/12 11:40:21;;;;;;;;;;;;;;;22.84;46.40;96411.03;10497927;28;1799;-57
2022/07/12 11:45:21;;;;;;;;;;;;;;;22.83;46.28;96409.47;10493860;28;2004;-57
2022/07/12 11:50:22;;;;;;;;;;;;;;;22.84;46.21;96416.34;10498507;28;1879;-56
2022/07/12 11:55:23;;;;;;;;;;;;;;;22.85;46.40;96407.34;10498574;28;1784;-61
2022/07/12 12:00:24;;;;;;;;;;;;;;;22.85;46.32;96402.88;10506028;28;1906;-59
2022/07/12 12:05:25;;;;;;;;;;;;;;;22.86;46.31;96408.91;10507117;28;2035;-60
2022/07/12 12:10:26;;;;;;;;;;;;;;;22.86;46.00;96396.50;10486873;28;1827;-60
2022/07/12 12:15:29;;;;;;;;;;;;;;;22.86;46.21;96393.84;10499330;28;1812;-61
2022/07/12 12:20:32;;;;;;;;;;;;;;;22.86;46.11;96390.41;10506138;28;1764;-55
2022/07/12 12:25:33;;;;;;;;;;;;;;;22.87;46.29;96384.88;10506479;28;1902;-58
2022/07/12 12:30:34;;;;;;;;;;;;;;;22.87;46.39;96398.09;10507162;28;1800;-56
2022/07/12 12:35:35;;;;;;;;;;;;;;;22.88;46.13;96396.22;10504478;28;1895;-58
2022/07/12 12:40:35;;;;;;;;;;;;;;;22.88;46.24;96397.03;10509121;28;1818;-58
2022/07/12 12:45:36;;;;;;;;;;;;;;;22.88;46.17;96389.09;10501584;28;1939;-59
2022/07/12 12:50:43;;;;;;;;;;;;;;;22.88;46.12;96386.44;10497764;28;1904;-60
2022/07/12 12:55:45;;;;;;;;;;;;;;;22.89;46.37;96381.97;10501060;28;1997;-59
2022/07/12 13:00:46;;;;;;;;;;;;;;;22.90;45.99;96378.22;10509335;28;1819;-56
2022/07/12 13:05:47;;;;;;;;;;;;;;;22.91;46.37;96390.41;10505367;28;1918;-58
2022/07/12 13:10:47;;;;;;;;;;;;;;;22.92;46.08;96376.09;10502923;28;1780;-57
2022/07/12 13:15:48;;;;;;;;;;;;;;;22.92;45.94;96376.91;10509820;28;1851;-54
2022/07/12 13:20:48;;;;;;;;;;;;;;;22.93;46.07;96369.78;10506739;28;1920;-54
2022/07/12 13:25:49;;;;;;;;;;;;;;;22.93;45.98;96386.44;10511551;28;1973;-59
2022/07/12 13:30:54;;;;;;;;;;;;;;;22.92;46.27;96384.84;10510554;28;1858;-58
2022/07/12 13:35:55;;;;;;;;;;;;;;;22.91;46.11;96380.63;10496180;28;1817;-59
2022/07/12 13:40:55;;;;;;;;;;;;;;;22.92;46.22;96389.31;10494161;28;1949;-60
2022/07/12 13:45:56;;;;;;;;;;;;;;;22.93;46.04;96393.56;10504103;28;1902;-61
2022/07/12 13:50:56;;;;;;;;;;;;;;;22.94;46.12;96392.47;10500256;28;1914;-57
2022/07/12 13:55:57;;;;;;;;;;;;;;;22.94;45.99;96395.13;10500277;28;1764;-61
2022/07/12 14:00:57;;;;;;;;;;;;;;;22.93;46.15;96393.56;10501934;28;2003;-59
2022/07/12 14:05:57;;;;;;;;;;;;;;;22.92;46.35;96384.03;10497224;28;1987;-56
2022/07/12 14:10:58;;;;;;;;;;;;;;;22.93;46.41;96388.28;10502705;28;1860;-58
2022/07/12 14:15:59;;;;;;;;;;;;;;;22.95;46.25;96396.72;10502332;28;1788;-61
2022/07/12 14:21:00;;;;;;;;;;;;;;;22.93;46.26;96398.84;10499270;28;1924;-58
2022/07/12 14:26:00;;;;;;;;;;;;;;;22.93;46.29;96393.56;10498889;28;1898;-59
2022/07/12 14:31:02;;;;;;;;;;;;;;;22.94;46.30;96395.13;10502537;28;1875;-59
2022/07/12 14:36:03;;;;;;;;;;;;;;;22.94;46.15;96392.47;10504543;28;1840;-55
2022/07/12 14:41:03;;;;;;;;;;;;;;;22.94;46.02;96389.84;10490976;28;1857;-56
2022/07/12 14:46:03;;;;;;;;;;;;;;;22.94;46.36;96387.19;10504769;28;2116;-58
2022/07/12 14:51:04;;;;;;;;;;;;;;;22.94;45.94;96381.91;10500817;28;1883;-58
2022/07/12 14:56:05;;;;;;;;;;;;;;;22.95;46.34;96386.16;10501195;28;2176;-57
2022/07/12 15:01:06;;;;;;;;;;;;;;;22.95;46.19;96381.66;10497826;28;1840;-55
2022/07/12 15:06:06;;;;;;;;;;;;;;;22.95;46.28;96370.28;10508608;28;1973;-58
2022/07/12 15:11:07;;;;;;;;;;;;;;;22.94;46.14;96372.13;10507755;28;1856;-61
2022/07/12 15:16:07;;;;;;;;;;;;;;;22.95;46.06;96375.56;10499615;28;1976;-58
2022/07/12 15:21:07;;;;;;;;;;;;;;;22.95;46.29;96367.66;10498086;28;1808;-59
2022/07/12 15:26:08;;;;;;;;;;;;;;;22.96;46.22;96369.22;10496165;28;1902;-61
2022/07/12 15:31:08;;;;;;;;;;;;;;;22.95;46.43;96368.44;10500332;28;2180;-58
2022/07/12 15:36:10;;;;;;;;;;;;;;;22.95;46.14;96365.00;10500998;28;1541;-58
2022/07/12 15:41:10;;;;;;;;;;;;;;;22.94;46.20;96366.84;10498932;28;1498;-54
2022/07/12 15:46:11;;;;;;;;;;;;;;;22.95;46.29;96365.00;10500913;28;1938;-55
2022/07/12 15:51:11;;;;;;;;;;;;;;;22.95;46.13;96365.00;10497626;28;1875;-56
2022/07/12 15:56:11;;;;;;;;;;;;;;;22.94;46.42;96360.75;10505863;28;2032;-53
2022/07/12 16:01:12;;;;;;;;;;;;;;;22.94;46.56;96353.63;10502391;28;1835;-59
2022/07/12 16:06:13;;;;;;;;;;;;;;;22.94;46.32;96350.97;10511825;28;2034;-57
2022/07/12 16:11:13;;;;;;;;;;;;;;;22.94;46.18;96352.81;10507642;28;1789;-53
2022/07/12 16:16:14;;;;;;;;;;;;;;;22.95;46.25;96372.94;10517615;28;1820;-54
2022/07/12 16:21:16;;;;;;;;;;;;;;;22.95;46.41;96365.00;10516583;28;1852;-55
2022/07/12 16:26:17;;;;;;;;;;;;;;;22.94;46.32;96371.34;10516674;28;2051;-58
2022/07/12 16:31:17;;;;;;;;;;;;;;;22.94;46.27;96369.50;10521845;28;1792;-58
2022/07/12 16:36:17;;;;;;;;;;;;;;;22.94;46.18;96373.97;10518153;28;1860;-54
2022/07/12 16:41:19;;;;;;;;;;;;;;;22.93;46.33;96375.84;10510466;28;1857;-53
2022/07/12 16:46:19;;;;;;;;;;;;;;;22.94;46.30;96366.84;10522018;28;1967;-52
2022/07/12 16:51:23;;;;;;;;;;;;;;;22.94;46.14;96368.69;10520007;28;1839;-57
2022/07/12 16:56:25;;;;;;;;;;;;;;;22.94;46.25;96364.19;10518008;28;1836;-56
2022/07/12 17:01:25;;;;;;;;;;;;;;;22.94;46.06;96355.47;10509113;28;1831;-59
2022/07/12 17:06:27;;;;;;;;;;;;;;;22.94;46.29;96358.13;10514391;28;1905;-59
2022/07/12 17:11:28;;;;;;;;;;;;;;;22.94;46.28;96361.56;10514379;28;1751;-57
2022/07/12 17:16:29;;;;;;;;;;;;;;;22.93;46.31;96369.78;10516138;28;1851;-52
2022/07/12 17:21:30;;;;;;;;;;;;;;;22.93;46.33;96361.84;10515448;28;1887;-56
2022/07/12 17:26:30;;;;;;;;;;;;;;;22.93;46.28;96361.84;10511084;28;1973;-58
2022/07/12 17:31:31;;;;;;;;;;;;;;;22.94;46.33;96371.34;10509688;28;1788;-57
2022/07/12 17:36:32;;;;;;;;;;;;;;;22.94;46.11;96376.63;10516107;28;1836;-55
2022/07/12 17:41:33;;;;;;;;;;;;;;;22.93;46.10;96370.56;10509375;28;1851;-57
2022/07/12 17:46:33;;;;;;;;;;;;;;;22.94;46.21;96373.97;10511264;28;1917;-58
2022/07/12 17:51:34;;;;;;;;;;;;;;;22.93;46.17;96377.69;10508228;28;1859;-58
2022/07/12 17:56:34;;;;;;;;;;;;;;;22.94;46.35;96369.50;10505088;28;1776;-54
2022/07/12 18:01:35;;;;;;;;;;;;;;;22.95;46.62;96380.88;10504946;28;1899;-56
2022/07/12 18:06:35;;;;;;;;;;;;;;;22.98;46.47;96380.34;10503219;28;1913;-54
2022/07/12 18:22:16;;;;;;;;;;;;;;;23.09;47.85;96392.41;10512690;28;1973;-54
2022/07/12 18:27:16;;;;;;;;;;;;;;;23.10;48.30;96388.72;10507661;28;1949;-57
2022/07/12 18:32:17;;;;;;;;;;;;;;;23.13;48.06;96393.44;10512030;28;1997;-59
2022/07/12 18:37:17;;;;;;;;;;;;;;;23.12;48.38;96389.22;10502295;28;1909;-53
2022/07/12 18:42:18;;;;;;;;;;;;;;;23.12;48.10;96391.88;10501678;28;2112;-54
2022/07/12 18:47:18;;;;;;;;;;;;;;;23.12;48.15;96387.34;10499100;28;1950;-62
2022/07/12 18:52:20;;;;;;;;;;;;;;;23.11;48.16;96385.78;10502968;28;1875;-57
2022/07/12 18:57:21;;;;;;;;;;;;;;;23.12;48.24;96386.59;10502949;28;2040;-56
2022/07/12 19:02:21;;;;;;;;;;;;;;;23.12;48.28;96389.22;10504204;28;1850;-59
2022/07/12 19:07:22;;;;;;;;;;;;;;;23.10;48.16;96384.19;10498869;28;1973;-58
2022/07/12 19:12:22;;;;;;;;;;;;;;;23.10;48.17;96392.13;10502530;28;1834;-56
2022/07/12 19:17:22;;;;;;;;;;;;;;;23.09;48.07;96392.41;10508149;28;1981;-57
2022/07/12 19:22:23;;;;;;;;;;;;;;;23.09;48.22;96395.06;10503277;28;1822;-58
2022/07/12 19:27:23;;;;;;;;;;;;;;;23.08;48.02;96401.41;10497329;28;1978;-59
2022/07/12 19:32:24;;;;;;;;;;;;;;;23.09;48.33;96413.56;10498657;28;1928;-59
2022/07/12 19:37:24;;;;;;;;;;;;;;;23.09;48.10;96408.28;10501877;28;1799;-61
2022/07/12 19:42:25;;;;;;;;;;;;;;;23.09;48.31;96421.50;10504250;28;1826;-58
2022/07/12 19:47:26;;;;;;;;;;;;;;;23.08;48.28;96418.06;10509025;28;1902;-57
2022/07/12 19:52:27;;;;;;;;;;;;;;;23.12;47.99;96424.38;10518564;28;1881;-59
2022/07/12 19:57:27;;;;;;;;;;;;;;;23.18;47.19;96419.88;10518168;28;1800;-59
2022/07/12 20:02:29;;;;;;;;;;;;;;;23.17;47.16;96428.84;10518418;28;1876;-57
2022/07/12 20:07:30;;;;;;;;;;;;;;;23.15;46.90;96434.41;10515437;28;1939;-61
2022/07/12 20:12:31;;;;;;;;;;;;;;;23.16;47.03;96429.94;10518496;28;1708;-60
2022/07/12 20:17:31;;;;;;;;;;;;;;;23.10;47.33;96423.84;10514624;28;1886;-61
2022/07/12 20:22:31;;;;;;;;;;;;;;;23.15;47.30;96429.13;10520535;28;1911;-62
2022/07/12 20:27:32;;;;;;;;;;;;;;;23.16;46.69;96430.69;10521306;28;1913;-61
2022/07/12 20:34:25;;;;;;;;;;;;;;;23.16;47.08;96436.00;10517308;28;1709;-59
2022/07/12 20:37:52;;;;;;;;;;;;;;;23.15;47.29;96433.63;10519485;28;1772;-57
2022/07/12 20:42:53;;;;;;;;;;;;;;;23.13;47.54;96433.09;10518129;28;1991;-60
2022/07/12 20:47:53;;;;;;;;;;;;;;;23.14;47.45;96432.06;10504118;28;1917;-60
2022/07/12 20:52:53;;;;;;;;;;;;;;;23.13;47.48;96433.09;10519692;28;1776;-60
2022/07/12 20:57:54;;;;;;;;;;;;;;;23.13;47.71;96441.03;10512174;28;1847;-55
2022/07/12 21:02:54;;;;;;;;;;;;;;;23.11;47.56;96445.81;10512891;28;1981;-59
2022/07/12 21:07:55;;;;;;;;;;;;;;;23.11;47.69;96436.03;10509401;28;1890;-61
2022/07/12 21:12:56;;;;;;;;;;;;;;;23.11;47.69;96437.88;10512547;28;1865;-56
2022/07/12 21:17:57;;;;;;;;;;;;;;;23.11;48.02;96437.88;10510797;28;1975;-59
2022/07/12 21:22:58;;;;;;;;;;;;;;;23.11;47.66;96432.59;10514035;28;1918;-64
2022/07/12 21:27:59;;;;;;;;;;;;;;;23.12;47.69;96431.53;10513409;28;1831;-60
2022/07/12 21:32:59;;;;;;;;;;;;;;;23.10;47.79;96431.78;10503578;28;1761;-62
2022/07/12 21:37:59;;;;;;;;;;;;;;;23.11;47.73;96438.69;10512440;28;1956;-59
2022/07/12 21:43:00;;;;;;;;;;;;;;;23.10;47.99;96434.44;10513509;28;1988;-57
2022/07/12 21:48:00;;;;;;;;;;;;;;;23.09;48.00;96440.00;10510919;28;1818;-58
2022/07/12 21:53:00;;;;;;;;;;;;;;;23.09;47.93;96447.94;10503691;28;1823;-62
2022/07/12 21:58:01;;;;;;;;;;;;;;;23.09;47.83;96446.09;10503151;28;1873;-59
2022/07/12 22:03:01;;;;;;;;;;;;;;;23.10;47.68;96450.31;10504340;28;1917;-59
2022/07/12 22:08:01;;;;;;;;;;;;;;;23.10;47.71;96446.91;10510462;28;1832;-57
2022/07/12 22:13:02;;;;;;;;;;;;;;;23.09;47.78;96447.94;10500885;28;1716;-55
2022/07/12 22:18:02;;;;;;;;;;;;;;;23.11;47.63;96448.47;10506907;28;1924;-54
2022/07/12 22:23:02;;;;;;;;;;;;;;;23.10;47.66;96449.53;10508960;28;1945;-58
2022/07/12 22:28:03;;;;;;;;;;;;;;;23.10;47.81;96455.59;10505000;28;1874;-56
2022/07/12 22:33:03;;;;;;;;;;;;;;;23.10;47.85;96462.75;10507122;28;1811;-56
2022/07/12 22:38:03;;;;;;;;;;;;;;;23.10;47.61;96457.47;10508883;28;2175;-58
2022/07/12 22:43:04;;;;;;;;;;;;;;;23.10;47.64;96460.13;10500378;28;1905;-60
2022/07/12 22:48:05;;;;;;;;;;;;;;;23.11;47.48;96459.84;10508509;28;2224;-61
2022/07/12 22:53:05;;;;;;;;;;;;;;;23.14;47.64;96466.44;10510262;28;1812;-59
2022/07/12 22:58:05;;;;;;;;;;;;;;;23.11;47.64;96451.91;10501667;28;2297;-61
2022/07/12 23:03:06;;;;;;;;;;;;;;;23.12;47.55;96455.34;10502868;28;2056;-58
2022/07/12 23:08:06;;;;;;;;;;;;;;;23.12;47.66;96452.69;10510528;28;1871;-59
2022/07/12 23:13:06;;;;;;;;;;;;;;;23.12;47.42;96453.47;10498655;28;1886;-57
2022/07/12 23:18:07;;;;;;;;;;;;;;;23.13;47.49;96456.91;10509891;28;2176;-61
2022/07/12 23:23:08;;;;;;;;;;;;;;;23.13;47.59;96456.91;10502712;28;2219;-58
2022/07/12 23:28:08;;;;;;;;;;;;;;;23.14;47.49;96453.97;10508140;28;2105;-54
2022/07/12 23:33:08;;;;;;;;;;;;;;;23.14;47.41;96456.63;10503725;28;1866;-56
2022/07/12 23:38:09;;;;;;;;;;;;;;;23.15;47.38;96460.06;10503337;28;1808;-57
2022/07/12 23:43:09;;;;;;;;;;;;;;;23.16;47.29;96464.31;10502089;28;1910;-55
2022/07/12 23:48:09;;;;;;;;;;;;;;;23.15;47.04;96460.88;10508884;28;1831;-55
2022/07/12 23:53:10;;;;;;;;;;;;;;;23.17;47.18;96460.59;10509123;28;1751;-59
2022/07/12 23:58:10;;;;;;;;;;;;;;;23.15;46.98;96454.78;10506897;28;1830;-59
